sensor_id;sensor_type;location;lat;lon;timestamp;P1;durP1;ratioP1;P2;durP2;ratioP2
76675;SDS011;69204;55.350;36.906;2023-07-16T00:01:56;22.90;;;10.23;;
76675;SDS011;69204;55.350;36.906;2023-07-16T00:07:01;25.33;;;10.25;;
76675;SDS011;69204;55.350;36.906;2023-07-16T00:12:03;30.67;;;11.47;;
76675;SDS011;69204;55.350;36.906;2023-07-16T00:17:05;24.48;;;10.13;;
76675;SDS011;69204;55.350;36.906;2023-07-16T00:22:06;20.77;;;9.70;;
76675;SDS011;69204;55.350;36.906;2023-07-16T00:27:07;23.27;;;9.90;;
76675;SDS011;69204;55.350;36.906;2023-07-16T00:32:09;22.58;;;10.20;;
76675;SDS011;69204;55.350;36.906;2023-07-16T00:37:10;26.63;;;10.83;;
76675;SDS011;69204;55.350;36.906;2023-07-16T00:42:11;24.20;;;9.88;;
76675;SDS011;69204;55.350;36.906;2023-07-16T00:47:12;24.98;;;10.35;;
76675;SDS011;69204;55.350;36.906;2023-07-16T00:52:16;26.37;;;10.47;;
76675;SDS011;69204;55.350;36.906;2023-07-16T00:57:19;28.23;;;11.02;;
76675;SDS011;69204;55.350;36.906;2023-07-16T01:02:19;26.33;;;11.83;;
76675;SDS011;69204;55.350;36.906;2023-07-16T01:07:21;28.08;;;11.55;;
76675;SDS011;69204;55.350;36.906;2023-07-16T01:12:25;28.02;;;10.63;;
76675;SDS011;69204;55.350;36.906;2023-07-16T01:17:27;30.97;;;11.03;;
76675;SDS011;69204;55.350;36.906;2023-07-16T01:33:23;27.00;;;10.75;;
76675;SDS011;69204;55.350;36.906;2023-07-16T01:38:24;21.52;;;10.65;;
76675;SDS011;69204;55.350;36.906;2023-07-16T01:43:25;20.63;;;10.07;;
76675;SDS011;69204;55.350;36.906;2023-07-16T01:53:33;21.03;;;10.20;;
76675;SDS011;69204;55.350;36.906;2023-07-16T01:58:34;16.58;;;9.30;;
76675;SDS011;69204;55.350;36.906;2023-07-16T02:03:35;19.20;;;8.53;;
76675;SDS011;69204;55.350;36.906;2023-07-16T02:08:36;14.50;;;7.47;;
76675;SDS011;69204;55.350;36.906;2023-07-16T02:13:37;11.25;;;7.63;;
76675;SDS011;69204;55.350;36.906;2023-07-16T02:18:38;9.17;;;6.67;;
76675;SDS011;69204;55.350;36.906;2023-07-16T02:23:59;11.65;;;8.02;;
76675;SDS011;69204;55.350;36.906;2023-07-16T02:29:00;8.73;;;6.77;;
76675;SDS011;69204;55.350;36.906;2023-07-16T02:34:01;9.30;;;6.07;;
76675;SDS011;69204;55.350;36.906;2023-07-16T02:39:02;10.77;;;6.05;;
76675;SDS011;69204;55.350;36.906;2023-07-16T02:44:04;12.13;;;6.33;;
76675;SDS011;69204;55.350;36.906;2023-07-16T02:49:06;7.78;;;5.50;;
76675;SDS011;69204;55.350;36.906;2023-07-16T02:54:07;6.40;;;4.67;;
76675;SDS011;69204;55.350;36.906;2023-07-16T02:59:08;7.45;;;5.03;;
76675;SDS011;69204;55.350;36.906;2023-07-16T03:04:09;7.47;;;5.50;;
76675;SDS011;69204;55.350;36.906;2023-07-16T03:09:10;9.70;;;4.35;;
76675;SDS011;69204;55.350;36.906;2023-07-16T03:14:11;9.07;;;4.97;;
76675;SDS011;69204;55.350;36.906;2023-07-16T03:19:12;7.23;;;3.97;;
76675;SDS011;69204;55.350;36.906;2023-07-16T03:24:13;7.13;;;4.70;;
76675;SDS011;69204;55.350;36.906;2023-07-16T03:29:14;8.27;;;4.90;;
76675;SDS011;69204;55.350;36.906;2023-07-16T03:34:15;7.68;;;4.68;;
76675;SDS011;69204;55.350;36.906;2023-07-16T03:39:15;8.77;;;4.93;;
76675;SDS011;69204;55.350;36.906;2023-07-16T03:44:16;7.63;;;4.13;;
76675;SDS011;69204;55.350;36.906;2023-07-16T03:49:17;9.20;;;4.60;;
76675;SDS011;69204;55.350;36.906;2023-07-16T03:54:18;9.25;;;5.70;;
76675;SDS011;69204;55.350;36.906;2023-07-16T03:59:19;8.40;;;5.20;;
76675;SDS011;69204;55.350;36.906;2023-07-16T04:04:20;7.68;;;4.53;;
76675;SDS011;69204;55.350;36.906;2023-07-16T04:09:21;8.90;;;5.37;;
76675;SDS011;69204;55.350;36.906;2023-07-16T04:14:22;8.23;;;4.90;;
76675;SDS011;69204;55.350;36.906;2023-07-16T04:19:23;7.35;;;4.80;;
76675;SDS011;69204;55.350;36.906;2023-07-16T04:24:24;7.37;;;4.97;;
76675;SDS011;69204;55.350;36.906;2023-07-16T04:29:27;6.47;;;4.90;;
76675;SDS011;69204;55.350;36.906;2023-07-16T04:34:28;7.93;;;4.97;;
76675;SDS011;69204;55.350;36.906;2023-07-16T04:39:29;7.93;;;4.97;;
76675;SDS011;69204;55.350;36.906;2023-07-16T04:44:30;7.77;;;4.63;;
76675;SDS011;69204;55.350;36.906;2023-07-16T04:49:31;8.63;;;5.30;;
76675;SDS011;69204;55.350;36.906;2023-07-16T04:54:35;6.80;;;4.47;;
76675;SDS011;69204;55.350;36.906;2023-07-16T04:59:37;7.77;;;4.10;;
76675;SDS011;69204;55.350;36.906;2023-07-16T05:04:38;6.78;;;4.25;;
76675;SDS011;69204;55.350;36.906;2023-07-16T05:09:39;7.30;;;4.40;;
76675;SDS011;69204;55.350;36.906;2023-07-16T05:14:44;6.20;;;4.77;;
76675;SDS011;69204;55.350;36.906;2023-07-16T05:19:46;6.40;;;4.50;;
76675;SDS011;69204;55.350;36.906;2023-07-16T05:24:47;10.03;;;4.63;;
76675;SDS011;69204;55.350;36.906;2023-07-16T05:29:49;6.75;;;4.20;;
76675;SDS011;69204;55.350;36.906;2023-07-16T05:34:50;8.23;;;3.88;;
76675;SDS011;69204;55.350;36.906;2023-07-16T05:39:51;6.63;;;4.50;;
76675;SDS011;69204;55.350;36.906;2023-07-16T05:44:52;7.72;;;3.90;;
76675;SDS011;69204;55.350;36.906;2023-07-16T05:49:53;6.70;;;4.63;;
76675;SDS011;69204;55.350;36.906;2023-07-16T05:54:54;7.25;;;3.75;;
76675;SDS011;69204;55.350;36.906;2023-07-16T05:59:55;7.53;;;4.00;;
76675;SDS011;69204;55.350;36.906;2023-07-16T06:04:56;13.97;;;3.83;;
76675;SDS011;69204;55.350;36.906;2023-07-16T06:09:58;7.25;;;4.03;;
76675;SDS011;69204;55.350;36.906;2023-07-16T06:14:59;5.93;;;4.00;;
76675;SDS011;69204;55.350;36.906;2023-07-16T06:20:01;8.17;;;3.90;;
76675;SDS011;69204;55.350;36.906;2023-07-16T06:25:04;6.70;;;3.28;;
76675;SDS011;69204;55.350;36.906;2023-07-16T06:30:06;6.20;;;3.93;;
76675;SDS011;69204;55.350;36.906;2023-07-16T06:35:08;5.75;;;3.95;;
76675;SDS011;69204;55.350;36.906;2023-07-16T06:40:10;7.25;;;3.67;;
76675;SDS011;69204;55.350;36.906;2023-07-16T06:45:11;5.73;;;3.80;;
76675;SDS011;69204;55.350;36.906;2023-07-16T06:50:12;5.53;;;3.97;;
76675;SDS011;69204;55.350;36.906;2023-07-16T06:55:14;6.57;;;4.07;;
76675;SDS011;69204;55.350;36.906;2023-07-16T07:00:16;7.78;;;3.92;;
76675;SDS011;69204;55.350;36.906;2023-07-16T07:05:17;7.53;;;3.95;;
76675;SDS011;69204;55.350;36.906;2023-07-16T07:10:18;6.20;;;3.70;;
76675;SDS011;69204;55.350;36.906;2023-07-16T07:15:21;7.30;;;4.25;;
76675;SDS011;69204;55.350;36.906;2023-07-16T07:20:22;7.37;;;4.50;;
76675;SDS011;69204;55.350;36.906;2023-07-16T07:25:24;9.70;;;4.90;;
76675;SDS011;69204;55.350;36.906;2023-07-16T07:30:25;8.38;;;4.20;;
76675;SDS011;69204;55.350;36.906;2023-07-16T07:35:27;7.93;;;4.50;;
76675;SDS011;69204;55.350;36.906;2023-07-16T07:40:28;7.25;;;4.32;;
76675;SDS011;69204;55.350;36.906;2023-07-16T07:45:29;7.50;;;4.20;;
76675;SDS011;69204;55.350;36.906;2023-07-16T07:50:30;7.63;;;4.18;;
76675;SDS011;69204;55.350;36.906;2023-07-16T07:55:33;7.30;;;4.38;;
76675;SDS011;69204;55.350;36.906;2023-07-16T08:00:36;7.80;;;4.17;;
76675;SDS011;69204;55.350;36.906;2023-07-16T08:05:37;8.18;;;4.57;;
76675;SDS011;69204;55.350;36.906;2023-07-16T08:10:39;17.40;;;6.40;;
76675;SDS011;69204;55.350;36.906;2023-07-16T08:15:41;8.25;;;4.80;;
76675;SDS011;69204;55.350;36.906;2023-07-16T08:20:42;7.10;;;3.90;;
76675;SDS011;69204;55.350;36.906;2023-07-16T08:25:43;6.23;;;4.10;;
76675;SDS011;69204;55.350;36.906;2023-07-16T08:30:48;5.75;;;4.25;;
76675;SDS011;69204;55.350;36.906;2023-07-16T08:35:49;7.80;;;4.47;;
76675;SDS011;69204;55.350;36.906;2023-07-16T08:40:50;7.45;;;4.63;;
76675;SDS011;69204;55.350;36.906;2023-07-16T08:45:52;11.20;;;4.30;;
76675;SDS011;69204;55.350;36.906;2023-07-16T08:50:53;7.70;;;4.27;;
76675;SDS011;69204;55.350;36.906;2023-07-16T08:55:56;8.45;;;4.38;;
76675;SDS011;69204;55.350;36.906;2023-07-16T09:00:59;5.63;;;4.07;;
76675;SDS011;69204;55.350;36.906;2023-07-16T09:06:02;8.82;;;4.22;;
76675;SDS011;69204;55.350;36.906;2023-07-16T09:11:05;9.15;;;4.10;;
76675;SDS011;69204;55.350;36.906;2023-07-16T09:16:06;7.73;;;4.00;;
76675;SDS011;69204;55.350;36.906;2023-07-16T09:21:07;6.40;;;3.83;;
76675;SDS011;69204;55.350;36.906;2023-07-16T09:26:09;7.13;;;3.53;;
76675;SDS011;69204;55.350;36.906;2023-07-16T09:31:10;6.57;;;3.63;;
76675;SDS011;69204;55.350;36.906;2023-07-16T09:36:12;6.65;;;3.80;;
76675;SDS011;69204;55.350;36.906;2023-07-16T09:41:14;7.03;;;4.00;;
76675;SDS011;69204;55.350;36.906;2023-07-16T09:46:15;6.57;;;4.30;;
76675;SDS011;69204;55.350;36.906;2023-07-16T09:51:16;7.03;;;3.57;;
76675;SDS011;69204;55.350;36.906;2023-07-16T09:56:19;7.67;;;3.93;;
76675;SDS011;69204;55.350;36.906;2023-07-16T10:01:21;12.05;;;3.90;;
76675;SDS011;69204;55.350;36.906;2023-07-16T10:06:23;8.60;;;3.70;;
76675;SDS011;69204;55.350;36.906;2023-07-16T10:11:24;6.30;;;3.40;;
76675;SDS011;69204;55.350;36.906;2023-07-16T10:16:25;5.95;;;3.80;;
76675;SDS011;69204;55.350;36.906;2023-07-16T10:21:28;6.83;;;3.83;;
76675;SDS011;69204;55.350;36.906;2023-07-16T10:26:38;6.22;;;3.90;;
76675;SDS011;69204;55.350;36.906;2023-07-16T10:31:39;5.90;;;3.80;;
76675;SDS011;69204;55.350;36.906;2023-07-16T10:36:40;6.70;;;3.57;;
76675;SDS011;69204;55.350;36.906;2023-07-16T10:41:43;6.25;;;3.97;;
76675;SDS011;69204;55.350;36.906;2023-07-16T10:46:45;7.83;;;4.10;;
76675;SDS011;69204;55.350;36.906;2023-07-16T10:51:46;6.30;;;3.70;;
76675;SDS011;69204;55.350;36.906;2023-07-16T10:56:47;6.03;;;3.45;;
76675;SDS011;69204;55.350;36.906;2023-07-16T11:01:48;7.20;;;3.83;;
76675;SDS011;69204;55.350;36.906;2023-07-16T11:06:51;5.93;;;3.80;;
76675;SDS011;69204;55.350;36.906;2023-07-16T11:11:52;7.53;;;4.53;;
76675;SDS011;69204;55.350;36.906;2023-07-16T11:16:53;11.82;;;7.88;;
76675;SDS011;69204;55.350;36.906;2023-07-16T11:22:07;7.38;;;3.72;;
76675;SDS011;69204;55.350;36.906;2023-07-16T11:27:20;6.83;;;4.13;;
76675;SDS011;69204;55.350;36.906;2023-07-16T11:37:34;7.50;;;4.80;;
76675;SDS011;69204;55.350;36.906;2023-07-16T11:42:40;7.18;;;4.05;;
76675;SDS011;69204;55.350;36.906;2023-07-16T11:47:43;5.43;;;3.67;;
76675;SDS011;69204;55.350;36.906;2023-07-16T11:52:51;5.80;;;3.57;;
76675;SDS011;69204;55.350;36.906;2023-07-16T11:57:57;5.22;;;3.78;;
76675;SDS011;69204;55.350;36.906;2023-07-16T12:03:00;6.03;;;3.97;;
76675;SDS011;69204;55.350;36.906;2023-07-16T12:08:01;5.47;;;3.25;;
76675;SDS011;69204;55.350;36.906;2023-07-16T12:13:02;5.22;;;3.20;;
76675;SDS011;69204;55.350;36.906;2023-07-16T12:18:03;5.47;;;3.47;;
76675;SDS011;69204;55.350;36.906;2023-07-16T12:23:04;5.47;;;3.90;;
76675;SDS011;69204;55.350;36.906;2023-07-16T12:28:06;6.73;;;3.67;;
76675;SDS011;69204;55.350;36.906;2023-07-16T12:33:07;8.23;;;4.03;;
76675;SDS011;69204;55.350;36.906;2023-07-16T12:38:09;6.17;;;3.97;;
76675;SDS011;69204;55.350;36.906;2023-07-16T12:43:10;4.67;;;3.23;;
76675;SDS011;69204;55.350;36.906;2023-07-16T12:48:11;6.75;;;4.43;;
76675;SDS011;69204;55.350;36.906;2023-07-16T12:53:12;9.50;;;4.30;;
76675;SDS011;69204;55.350;36.906;2023-07-16T12:58:13;5.40;;;3.53;;
76675;SDS011;69204;55.350;36.906;2023-07-16T13:03:14;6.93;;;4.07;;
76675;SDS011;69204;55.350;36.906;2023-07-16T13:08:17;11.60;;;4.27;;
76675;SDS011;69204;55.350;36.906;2023-07-16T13:13:18;5.55;;;3.50;;
76675;SDS011;69204;55.350;36.906;2023-07-16T13:18:19;8.77;;;4.20;;
76675;SDS011;69204;55.350;36.906;2023-07-16T13:23:20;8.37;;;4.17;;
76675;SDS011;69204;55.350;36.906;2023-07-16T13:28:21;6.25;;;4.50;;
76675;SDS011;69204;55.350;36.906;2023-07-16T13:33:23;6.55;;;4.20;;
76675;SDS011;69204;55.350;36.906;2023-07-16T13:38:25;9.20;;;4.00;;
76675;SDS011;69204;55.350;36.906;2023-07-16T13:43:26;6.57;;;3.90;;
76675;SDS011;69204;55.350;36.906;2023-07-16T13:48:27;6.53;;;3.93;;
76675;SDS011;69204;55.350;36.906;2023-07-16T13:53:29;5.88;;;3.80;;
76675;SDS011;69204;55.350;36.906;2023-07-16T13:58:30;6.53;;;3.75;;
76675;SDS011;69204;55.350;36.906;2023-07-16T14:03:31;8.77;;;4.90;;
76675;SDS011;69204;55.350;36.906;2023-07-16T14:08:32;9.30;;;4.57;;
76675;SDS011;69204;55.350;36.906;2023-07-16T14:13:36;22.08;;;12.07;;
76675;SDS011;69204;55.350;36.906;2023-07-16T14:18:38;6.80;;;3.77;;
76675;SDS011;69204;55.350;36.906;2023-07-16T14:23:39;7.43;;;5.05;;
76675;SDS011;69204;55.350;36.906;2023-07-16T14:28:40;7.23;;;4.13;;
76675;SDS011;69204;55.350;36.906;2023-07-16T14:33:41;6.78;;;4.03;;
76675;SDS011;69204;55.350;36.906;2023-07-16T14:38:42;6.53;;;3.50;;
76675;SDS011;69204;55.350;36.906;2023-07-16T14:43:45;5.60;;;3.37;;
76675;SDS011;69204;55.350;36.906;2023-07-16T14:48:46;5.45;;;3.53;;
76675;SDS011;69204;55.350;36.906;2023-07-16T14:53:48;8.83;;;4.50;;
76675;SDS011;69204;55.350;36.906;2023-07-16T14:58:49;7.32;;;4.25;;
76675;SDS011;69204;55.350;36.906;2023-07-16T15:03:50;8.07;;;4.10;;
76675;SDS011;69204;55.350;36.906;2023-07-16T15:08:51;7.30;;;4.60;;
76675;SDS011;69204;55.350;36.906;2023-07-16T15:13:52;6.93;;;4.10;;
76675;SDS011;69204;55.350;36.906;2023-07-16T15:18:53;7.13;;;4.87;;
76675;SDS011;69204;55.350;36.906;2023-07-16T15:23:54;9.15;;;4.47;;
76675;SDS011;69204;55.350;36.906;2023-07-16T15:28:55;8.35;;;5.22;;
76675;SDS011;69204;55.350;36.906;2023-07-16T15:33:57;9.73;;;4.90;;
76675;SDS011;69204;55.350;36.906;2023-07-16T15:38:58;7.93;;;4.50;;
76675;SDS011;69204;55.350;36.906;2023-07-16T15:43:59;7.97;;;4.77;;
76675;SDS011;69204;55.350;36.906;2023-07-16T15:49:00;7.75;;;5.05;;
76675;SDS011;69204;55.350;36.906;2023-07-16T15:54:02;8.40;;;4.25;;
76675;SDS011;69204;55.350;36.906;2023-07-16T15:59:04;8.07;;;4.43;;
76675;SDS011;69204;55.350;36.906;2023-07-16T16:04:05;9.70;;;4.28;;
76675;SDS011;69204;55.350;36.906;2023-07-16T16:09:06;9.57;;;4.27;;
76675;SDS011;69204;55.350;36.906;2023-07-16T16:14:08;11.98;;;5.43;;
76675;SDS011;69204;55.350;36.906;2023-07-16T16:19:10;7.93;;;4.10;;
76675;SDS011;69204;55.350;36.906;2023-07-16T16:24:13;6.57;;;4.10;;
76675;SDS011;69204;55.350;36.906;2023-07-16T16:29:14;6.35;;;4.13;;
76675;SDS011;69204;55.350;36.906;2023-07-16T16:34:15;7.63;;;4.47;;
76675;SDS011;69204;55.350;36.906;2023-07-16T16:39:17;6.40;;;4.50;;
76675;SDS011;69204;55.350;36.906;2023-07-16T16:44:18;7.05;;;4.10;;
76675;SDS011;69204;55.350;36.906;2023-07-16T16:49:19;9.77;;;5.13;;
76675;SDS011;69204;55.350;36.906;2023-07-16T16:54:20;9.38;;;4.85;;
76675;SDS011;69204;55.350;36.906;2023-07-16T16:59:21;6.07;;;4.43;;
76675;SDS011;69204;55.350;36.906;2023-07-16T17:04:22;11.43;;;8.70;;
76675;SDS011;69204;55.350;36.906;2023-07-16T17:09:23;10.15;;;4.90;;
76675;SDS011;69204;55.350;36.906;2023-07-16T17:14:24;10.93;;;5.57;;
76675;SDS011;69204;55.350;36.906;2023-07-16T17:19:26;8.65;;;5.05;;
76675;SDS011;69204;55.350;36.906;2023-07-16T17:24:27;8.55;;;5.22;;
76675;SDS011;69204;55.350;36.906;2023-07-16T17:29:28;7.13;;;4.97;;
76675;SDS011;69204;55.350;36.906;2023-07-16T17:34:29;9.98;;;5.45;;
76675;SDS011;69204;55.350;36.906;2023-07-16T17:39:30;13.43;;;6.00;;
76675;SDS011;69204;55.350;36.906;2023-07-16T17:44:32;11.30;;;6.90;;
76675;SDS011;69204;55.350;36.906;2023-07-16T17:49:33;10.25;;;6.63;;
76675;SDS011;69204;55.350;36.906;2023-07-16T17:54:34;11.83;;;7.40;;
76675;SDS011;69204;55.350;36.906;2023-07-16T17:59:37;12.48;;;7.43;;
76675;SDS011;69204;55.350;36.906;2023-07-16T18:04:39;13.68;;;7.70;;
76675;SDS011;69204;55.350;36.906;2023-07-16T18:09:40;13.03;;;7.93;;
76675;SDS011;69204;55.350;36.906;2023-07-16T18:14:41;15.20;;;8.02;;
76675;SDS011;69204;55.350;36.906;2023-07-16T18:19:42;14.90;;;10.07;;
76675;SDS011;69204;55.350;36.906;2023-07-16T18:24:43;16.38;;;8.57;;
76675;SDS011;69204;55.350;36.906;2023-07-16T18:29:45;14.15;;;7.28;;
76675;SDS011;69204;55.350;36.906;2023-07-16T18:34:46;11.73;;;7.50;;
76675;SDS011;69204;55.350;36.906;2023-07-16T18:39:48;14.80;;;8.38;;
76675;SDS011;69204;55.350;36.906;2023-07-16T18:44:54;15.43;;;8.70;;
76675;SDS011;69204;55.350;36.906;2023-07-16T18:49:57;14.23;;;8.20;;
76675;SDS011;69204;55.350;36.906;2023-07-16T18:54:59;17.38;;;9.88;;
76675;SDS011;69204;55.350;36.906;2023-07-16T19:00:01;27.03;;;14.27;;
76675;SDS011;69204;55.350;36.906;2023-07-16T19:05:07;33.83;;;17.80;;
76675;SDS011;69204;55.350;36.906;2023-07-16T19:10:10;28.87;;;16.87;;
76675;SDS011;69204;55.350;36.906;2023-07-16T19:15:12;30.95;;;17.95;;
76675;SDS011;69204;55.350;36.906;2023-07-16T19:20:14;34.25;;;18.58;;
76675;SDS011;69204;55.350;36.906;2023-07-16T19:25:15;33.27;;;19.50;;
76675;SDS011;69204;55.350;36.906;2023-07-16T19:30:17;32.00;;;20.65;;
76675;SDS011;69204;55.350;36.906;2023-07-16T19:35:19;28.97;;;17.53;;
76675;SDS011;69204;55.350;36.906;2023-07-16T19:40:21;31.30;;;16.27;;
76675;SDS011;69204;55.350;36.906;2023-07-16T19:45:22;30.10;;;17.13;;
76675;SDS011;69204;55.350;36.906;2023-07-16T19:50:23;22.30;;;13.00;;
76675;SDS011;69204;55.350;36.906;2023-07-16T19:55:27;25.95;;;11.00;;
76675;SDS011;69204;55.350;36.906;2023-07-16T20:00:28;30.03;;;16.07;;
76675;SDS011;69204;55.350;36.906;2023-07-16T20:05:29;23.30;;;13.65;;
76675;SDS011;69204;55.350;36.906;2023-07-16T20:10:31;29.30;;;15.18;;
76675;SDS011;69204;55.350;36.906;2023-07-16T20:15:32;33.17;;;13.90;;
76675;SDS011;69204;55.350;36.906;2023-07-16T20:20:33;24.38;;;13.77;;
76675;SDS011;69204;55.350;36.906;2023-07-16T20:25:37;24.23;;;13.73;;
76675;SDS011;69204;55.350;36.906;2023-07-16T20:30:39;23.75;;;12.35;;
76675;SDS011;69204;55.350;36.906;2023-07-16T20:35:43;24.52;;;12.05;;
76675;SDS011;69204;55.350;36.906;2023-07-16T20:40:44;22.20;;;10.80;;
76675;SDS011;69204;55.350;36.906;2023-07-16T20:45:47;26.60;;;13.77;;
76675;SDS011;69204;55.350;36.906;2023-07-16T20:50:48;35.77;;;17.47;;
76675;SDS011;69204;55.350;36.906;2023-07-16T20:55:50;36.63;;;17.25;;
76675;SDS011;69204;55.350;36.906;2023-07-16T21:00:51;42.35;;;19.58;;
76675;SDS011;69204;55.350;36.906;2023-07-16T21:05:52;48.93;;;22.17;;
76675;SDS011;69204;55.350;36.906;2023-07-16T21:10:53;39.70;;;19.27;;
76675;SDS011;69204;55.350;36.906;2023-07-16T21:15:54;50.33;;;21.20;;
76675;SDS011;69204;55.350;36.906;2023-07-16T21:20:55;43.03;;;20.33;;
76675;SDS011;69204;55.350;36.906;2023-07-16T21:25:56;36.97;;;18.80;;
76675;SDS011;69204;55.350;36.906;2023-07-16T21:30:57;41.38;;;19.67;;
76675;SDS011;69204;55.350;36.906;2023-07-16T21:35:58;34.13;;;17.50;;
76675;SDS011;69204;55.350;36.906;2023-07-16T21:40:59;28.83;;;15.17;;
76675;SDS011;69204;55.350;36.906;2023-07-16T21:46:00;30.00;;;15.90;;
76675;SDS011;69204;55.350;36.906;2023-07-16T21:51:01;28.50;;;13.67;;
76675;SDS011;69204;55.350;36.906;2023-07-16T21:56:03;32.08;;;15.75;;
76675;SDS011;69204;55.350;36.906;2023-07-16T22:01:04;27.85;;;14.40;;
76675;SDS011;69204;55.350;36.906;2023-07-16T22:06:05;30.13;;;14.87;;
76675;SDS011;69204;55.350;36.906;2023-07-16T22:11:07;27.25;;;13.95;;
76675;SDS011;69204;55.350;36.906;2023-07-16T22:16:08;24.77;;;13.57;;
76675;SDS011;69204;55.350;36.906;2023-07-16T22:21:09;27.77;;;13.27;;
76675;SDS011;69204;55.350;36.906;2023-07-16T22:26:10;26.35;;;12.77;;
76675;SDS011;69204;55.350;36.906;2023-07-16T22:31:11;32.63;;;12.07;;
76675;SDS011;69204;55.350;36.906;2023-07-16T22:36:13;22.35;;;12.15;;
76675;SDS011;69204;55.350;36.906;2023-07-16T22:41:16;25.90;;;12.47;;
76675;SDS011;69204;55.350;36.906;2023-07-16T22:46:17;25.95;;;12.02;;
76675;SDS011;69204;55.350;36.906;2023-07-16T22:51:19;25.83;;;12.00;;
76675;SDS011;69204;55.350;36.906;2023-07-16T22:56:20;29.47;;;12.07;;
76675;SDS011;69204;55.350;36.906;2023-07-16T23:01:23;23.27;;;12.50;;
76675;SDS011;69204;55.350;36.906;2023-07-16T23:06:25;24.60;;;12.33;;
76675;SDS011;69204;55.350;36.906;2023-07-16T23:11:26;27.48;;;12.60;;
76675;SDS011;69204;55.350;36.906;2023-07-16T23:16:27;23.60;;;11.75;;
76675;SDS011;69204;55.350;36.906;2023-07-16T23:21:28;27.83;;;13.07;;
76675;SDS011;69204;55.350;36.906;2023-07-16T23:26:29;21.65;;;10.77;;
76675;SDS011;69204;55.350;36.906;2023-07-16T23:31:31;30.80;;;13.97;;
76675;SDS011;69204;55.350;36.906;2023-07-16T23:36:33;27.65;;;13.77;;
76675;SDS011;69204;55.350;36.906;2023-07-16T23:41:34;26.30;;;12.35;;
76675;SDS011;69204;55.350;36.906;2023-07-16T23:46:35;26.83;;;11.43;;
76675;SDS011;69204;55.350;36.906;2023-07-16T23:51:36;31.60;;;11.95;;
76675;SDS011;69204;55.350;36.906;2023-07-16T23:56:38;28.07;;;14.63;;
